ADDS METAR Data INFO
IDs: Format: Raw Decoded Include TAF

Data at: 0430 UTC 28 Jul 2017

KT82 280415Z AUTO 17005KT 10SM CLR 28/17 A2999 RMK AO2 T02810166
KT82 280355Z AUTO 17005KT 10SM CLR 28/17 A2999 RMK AO2 T02820165
KT82 280335Z AUTO 17005KT 10SM CLR 28/16 A2999 RMK AO2 T02800162
KT82 280315Z AUTO 16003KT 10SM CLR 28/16 A2998 RMK AO2 T02810162
KT82 280255Z AUTO 00000KT 10SM CLR 29/16 A2998 RMK AO2 T02880160
KT82 280235Z AUTO 15004KT 10SM CLR 30/16 A2998 RMK AO2 T02950158
KT82 280215Z AUTO 16003KT 10SM CLR 30/16 A2998 RMK AO2 T02980156
KT82 280155Z AUTO 15004KT 10SM CLR 30/15 A2997 RMK AO2 T03040154
KT82 280135Z AUTO 16006KT 10SM CLR 31/15 A2997 RMK AO2 T03110151
KT82 280115Z AUTO 16005KT 10SM CLR 32/15 A2997 RMK AO2 T03200147
KT82 280055Z AUTO 16007KT 10SM CLR 33/14 A2997 RMK AO2 T03270144
KT82 280035Z AUTO 17007KT 10SM CLR 33/14 A2997 RMK AO2 T03310144
KT82 280015Z AUTO 16007G14KT 10SM CLR 34/15 A2997 RMK AO2 T03350145
KT82 272355Z AUTO 15007KT 10SM SCT080 SCT085 34/15 A2998 RMK AO2 T03410145 10355 20315
KT82 272335Z AUTO 15008KT 10SM CLR 34/15 A2998 RMK AO2 T03420146
KT82 272315Z AUTO 17011KT 10SM CLR 35/14 A2998 RMK AO2 T03460143
KT82 272255Z AUTO 17007KT 10SM CLR 35/14 A2998 RMK AO2 T03450144
KT82 272235Z AUTO 18011G14KT 10SM CLR 35/15 A2999 RMK AO2 T03450149
KT82 272215Z AUTO 18006KT 10SM SCT070 35/15 A2999 RMK AO2 T03520145
KT82 272155Z AUTO 19008KT 10SM CLR 36/15 A3000 RMK AO2 T03550145
KT82 272135Z AUTO 18008KT 10SM CLR 35/14 A3001 RMK AO2 T03540142
KT82 272115Z AUTO 22005KT 10SM SCT065 35/15 A3001 RMK AO2 T03470153
KT82 272055Z AUTO 19010KT 10SM SCT065 35/16 A3003 RMK AO2 T03490156
KT82 272035Z AUTO 15005KT 10SM CLR 34/15 A3003 RMK AO2 T03420149
KT82 272015Z AUTO 16006G15KT 10SM CLR 34/15 A3004 RMK AO2 T03410151
KT82 271955Z AUTO 17011G14KT 10SM CLR 34/15 A3005 RMK AO2 T03410152
KT82 271935Z AUTO 19005KT 10SM CLR 34/16 A3006 RMK AO2 T03360158
KT82 271915Z AUTO 22007KT 10SM CLR 33/15 A3007 RMK AO2 T03340154
KT82 271855Z AUTO 17006G15KT 140V200 10SM CLR 33/15 A3008 RMK AO2 T03320154
KT82 271835Z AUTO 16006KT 10SM CLR 33/16 A3009 RMK AO2 T03250158
KT82 271815Z AUTO 20007KT 10SM CLR 32/16 A3009 RMK AO2 T03240163
KT82 271755Z AUTO 22007KT 10SM CLR 32/16 A3010 RMK AO2 T03160163 10319 20201
KT82 271735Z AUTO 19010KT 10SM CLR 32/17 A3011 RMK AO2 T03150171
KT82 271715Z AUTO 18005G16KT 10SM CLR 31/17 A3011 RMK AO2 T03130170
KT82 271655Z AUTO 21012KT 10SM CLR 31/17 A3011 RMK AO2 T03070170
KT82 271635Z AUTO 18011KT 10SM CLR 30/17 A3011 RMK AO2 T03020166
KT82 271615Z AUTO 21011KT 10SM CLR 30/17 A3011 RMK AO2 T02990168
KT82 271555Z AUTO 20009G14KT 10SM CLR 30/17 A3011 RMK AO2 T02950172
KT82 271535Z AUTO 22010G15KT 10SM CLR 29/17 A3011 RMK AO2 T02900174
KT82 271515Z AUTO 18007KT 10SM CLR 28/18 A3011 RMK AO2 T02780181
KT82 271455Z AUTO 22010G15KT 10SM CLR 28/18 A3011 RMK AO2 T02750181
KT82 271435Z AUTO 21009KT 10SM CLR 27/18 A3011 RMK AO2 T02700180
KT82 271415Z AUTO 20007KT 10SM CLR 26/18 A3010 RMK AO2 T02640183
KT82 271355Z AUTO 20007KT 10SM CLR 25/19 A3010 RMK AO2 T02510189
KT82 271335Z AUTO 21006KT 10SM CLR 24/20 A3009 RMK AO2 T02420195
KT82 271315Z AUTO 19005KT 10SM CLR 23/20 A3009 RMK AO2 T02310195
KT82 271255Z AUTO 00000KT 10SM CLR 22/19 A3009 RMK AO2 T02200193
KT82 271235Z AUTO 00000KT 10SM CLR 21/19 A3009 RMK AO2 T02120190
KT82 271215Z AUTO 00000KT 10SM CLR 20/19 A3009 RMK AO2 T02040186
KT82 271155Z AUTO 00000KT 10SM CLR 21/19 A3009 RMK AO2 T02050185 10245 20205
KT82 271135Z AUTO 00000KT 10SM CLR 21/18 A3009 RMK AO2 T02070183
KT82 271115Z AUTO 00000KT 10SM CLR 21/18 A3008 RMK AO2 T02080181
KT82 271055Z AUTO 00000KT 10SM CLR 21/18 A3008 RMK AO2 T02100182
KT82 271035Z AUTO 00000KT 7SM CLR 21/18 A3008 RMK AO2 T02130184
KT82 271015Z AUTO 00000KT 10SM CLR 22/18 A3007 RMK AO2 T02180182
KT82 270955Z AUTO 21004KT 10SM CLR 22/18 A3006 RMK AO2 T02190182
KT82 270935Z AUTO 20003KT 10SM CLR 22/18 A3007 RMK AO2 T02240182
KT82 270915Z AUTO 20005KT 10SM CLR 23/18 A3008 RMK AO2 T02270181
KT82 270855Z AUTO 20004KT 10SM CLR 23/18 A3009 RMK AO2 T02280179
KT82 270835Z AUTO 20003KT 10SM CLR 23/18 A3009 RMK AO2 T02300176
KT82 270815Z AUTO 00000KT 10SM CLR 23/18 A3010 RMK AO2 T02300175
KT82 270755Z AUTO 19005KT 10SM CLR 23/18 A3010 RMK AO2 T02320176
KT82 270735Z AUTO 19003KT 10SM CLR 24/18 A3010 RMK AO2 T02360178
KT82 270715Z AUTO 20004KT 10SM CLR 24/18 A3010 RMK AO2 T02380181
KT82 270655Z AUTO 18003KT 10SM CLR 24/19 A3010 RMK AO2 T02360186
KT82 270635Z AUTO 18004KT 10SM CLR 24/19 A3010 RMK AO2 T02410188
KT82 270615Z AUTO 18005KT 10SM SCT021 25/19 A3010 RMK AO2 T02450192
KT82 270555Z AUTO 19004KT 10SM SCT021 24/20 A3011 RMK AO2 T02440195 10341 20244 403530225
KT82 270535Z AUTO 20003KT 10SM CLR 25/19 A3011 RMK AO2 T02480190
KT82 270515Z AUTO 00000KT 10SM CLR 25/18 A3011 RMK AO2 T02500180
KT82 270455Z AUTO 17003KT 10SM CLR 25/17 A3011 RMK AO2 T02500172
KT82 270435Z AUTO 19003KT 10SM CLR 25/17 A3010 RMK AO2 T02540168
KT82 270415Z AUTO 00000KT 10SM CLR 26/17 A3010 RMK AO2 T02580167
KT82 270355Z AUTO 17004KT 10SM CLR 26/17 A3009 RMK AO2 T02590169
KT82 270335Z AUTO 20004KT 10SM CLR 26/17 A3009 RMK AO2 T02640171
KT82 270315Z AUTO 19005KT 10SM CLR 27/18 A3008 RMK AO2 T02650175
KT82 270255Z AUTO 18007KT 10SM CLR 27/18 A3007 RMK AO2 T02710175
KT82 270235Z AUTO 18006KT 10SM CLR 27/18 A3006 RMK AO2 T02720180
KT82 270215Z AUTO 18007KT 10SM CLR 28/18 A3005 RMK AO2 T02760180
KT82 270155Z AUTO 17008G14KT 10SM CLR 28/18 A3005 RMK AO2 T02800182
KT82 270135Z AUTO 17010G15KT 10SM CLR 29/18 A3004 RMK AO2 T02870180
KT82 270115Z AUTO 16010G18KT 10SM SCT085 30/18 A3004 RMK AO2 T02980175
KT82 270055Z AUTO 17010G24KT 10SM CLR 33/14 A3003 RMK AO2 T03310144
KT82 270035Z AUTO 16006KT 10SM CLR 34/14 A3003 RMK AO2 T03360144
KT82 270015Z AUTO 16008KT 10SM CLR 34/15 A3003 RMK AO2 T03400145
KT82 262355Z AUTO 17008KT 10SM SCT070 34/15 A3003 RMK AO2 T03420145 10353 20316
KT82 262335Z AUTO 15007KT 10SM SCT070 35/15 A3002 RMK AO2 T03460145
KT82 262315Z AUTO 13006KT 10SM SCT070 35/14 A3002 RMK AO2 T03470142
KT82 262255Z AUTO 14007G15KT 10SM SCT070 35/15 A3003 RMK AO2 T03500146
KT82 262235Z AUTO 15009G14KT 120V180 10SM SCT070 35/15 A3003 RMK AO2 T03490147
KT82 262215Z AUTO 16009KT 10SM SCT070 35/15 A3004 RMK AO2 T03480150
KT82 262155Z AUTO 18008KT 10SM SCT070 35/15 A3004 RMK AO2 T03450150
KT82 262135Z AUTO 20009G14KT 10SM SCT070 35/15 A3005 RMK AO2 T03520149
KT82 262115Z AUTO 21013G16KT 10SM SCT070 35/15 A3005 RMK AO2 T03450146
KT82 262055Z AUTO 19012G17KT 10SM CLR 34/15 A3006 RMK AO2 T03440145
KT82 262035Z AUTO 21010G15KT 10SM CLR 34/14 A3007 RMK AO2 T03440144
KT82 262015Z AUTO 20010G16KT 160V220 10SM CLR 34/15 A3008 RMK AO2 T03400150
KT82 261955Z AUTO 16009G17KT 10SM CLR 34/15 A3009 RMK AO2 T03370149
KT82 261935Z AUTO 20010G15KT 10SM CLR 34/16 A3009 RMK AO2 T03380157
KT82 261915Z AUTO 18011G16KT 10SM CLR 33/16 A3010 RMK AO2 T03300163
KT82 261855Z AUTO 21011G20KT 10SM CLR 33/16 A3011 RMK AO2 T03310162
KT82 261835Z AUTO 22010G16KT 10SM CLR 33/16 A3012 RMK AO2 T03260156
KT82 261815Z AUTO 21008KT 10SM CLR 32/16 A3013 RMK AO2 T03190164
KT82 261755Z AUTO 23010G17KT 10SM CLR 32/16 A3013 RMK AO2 T03190163 10320 20225
KT82 261735Z AUTO 19010G16KT 10SM CLR 32/16 A3013 RMK AO2 T03200164
KT82 261715Z AUTO 22012G19KT 10SM CLR 31/16 A3014 RMK AO2 T03110161
KT82 261655Z AUTO 20010G17KT 10SM CLR 31/17 A3015 RMK AO2 T03070171
KT82 261635Z AUTO 21011G19KT 10SM CLR 30/17 A3015 RMK AO2 T03000165